Time;durP1;ratioP1;P1;durP2;ratioP2;P2;SDS_P1;SDS_P2;PMS_P1;PMS_P2;Temp;Humidity;BMP_temperature;BMP_pressure;BME280_temperature;BME280_humidity;BME280_pressure;Samples;Min_cycle;Max_cycle;Signal;HPM_P1;HPM_P2
2022/10/05 00:00:56;;;;;;;2.75;0.80;;;;;;;14.33;100.00;101682.63;5033770;28;20029;-85
2022/10/05 00:03:26;;;;;;;3.58;0.80;;;;;;;14.29;100.00;101685.50;5029423;28;20064;-85
2022/10/05 00:05:52;;;;;;;4.68;1.38;;;;;;;14.29;100.00;101685.50;5048150;28;20029;-85
2022/10/05 00:08:24;;;;;;;5.05;1.08;;;;;;;14.32;100.00;101689.66;5048145;28;20385;-85
2022/10/05 00:10:50;;;;;;;2.03;0.80;;;;;;;14.33;100.00;101690.47;5049664;28;20039;-85
2022/10/05 00:13:20;;;;;;;4.10;1.02;;;;;;;14.35;100.00;101697.25;5045985;28;20079;-84
2022/10/05 00:15:46;;;;;;;3.85;1.58;;;;;;;14.33;100.00;101696.56;5019905;28;20037;-85
2022/10/05 00:18:17;;;;;;;6.05;1.33;;;;;;;14.31;100.00;101701.09;5044650;28;20505;-84
2022/10/05 00:20:44;;;;;;;2.70;1.15;;;;;;;14.28;100.00;101704.81;5048701;28;20117;-85
2022/10/05 00:23:18;;;;;;;3.63;0.95;;;;;;;14.28;100.00;101699.59;5035534;28;20090;-84
2022/10/05 00:25:44;;;;;;;5.18;1.23;;;;;;;14.32;100.00;101704.56;5030800;28;20543;-85
2022/10/05 00:28:17;;;;;;;5.10;1.13;;;;;;;14.31;100.00;101698.47;5036680;28;20037;-85
2022/10/05 00:30:43;;;;;;;4.72;0.80;;;;;;;14.31;100.00;101702.91;5037508;28;20025;-84
2022/10/05 00:33:08;;;;;;;4.28;1.02;;;;;;;14.35;100.00;101696.41;5034965;28;20075;-86
2022/10/05 00:35:35;;;;;;;3.67;0.95;;;;;;;14.37;100.00;101699.72;5030923;28;20034;-85
2022/10/05 00:38:00;;;;;;;7.65;1.67;;;;;;;14.37;100.00;101703.19;5042933;28;20029;-85
2022/10/05 00:41:04;;;;;;;4.78;1.23;;;;;;;14.33;100.00;101700.97;5038640;28;20033;-86
2022/10/05 00:43:39;;;;;;;4.78;1.30;;;;;;;14.28;100.00;101693.50;5033160;28;20060;-84
2022/10/05 00:46:20;;;;;;;3.67;1.00;;;;;;;14.23;100.00;101701.78;5030661;28;20091;-84
2022/10/05 00:49:35;;;;;;;4.68;1.05;;;;;;;14.22;100.00;101701.94;5035458;28;20073;-84
2022/10/05 00:52:10;;;;;;;3.20;1.00;;;;;;;14.24;100.00;101700.81;5010560;28;20119;-85
2022/10/05 00:54:45;;;;;;;2.22;0.98;;;;;;;14.29;100.00;101703.03;5033378;28;20040;-85
2022/10/05 00:57:24;;;;;;;5.93;1.08;;;;;;;14.36;100.00;101701.50;5048882;28;20033;-86
2022/10/05 01:00:08;;;;;;;1.65;0.65;;;;;;;14.41;100.00;101695.84;5046256;28;20044;-86
2022/10/05 01:02:51;;;;;;;6.95;1.13;;;;;;;14.44;100.00;101699.06;5039265;28;20054;-85
2022/10/05 01:05:31;;;;;;;2.90;0.70;;;;;;;14.44;100.00;101699.06;5043066;28;20392;-85
2022/10/05 01:08:17;;;;;;;3.42;1.10;;;;;;;14.44;100.00;101703.47;5045958;28;20036;-86
2022/10/05 01:10:59;;;;;;;6.85;1.17;;;;;;;14.39;100.00;101695.16;5028358;28;20037;-84
2022/10/05 01:14:09;;;;;;;5.05;0.77;;;;;;;14.38;100.00;101698.75;5043980;28;20033;-85
2022/10/05 01:16:51;;;;;;;4.00;0.82;;;;;;;14.29;100.00;101696.00;4964850;28;20195;-84
2022/10/05 01:19:43;;;;;;;1.40;0.82;;;;;;;14.28;100.00;101702.22;4963445;28;20042;-85
2022/10/05 01:22:14;;;;;;;3.40;0.70;;;;;;;14.32;100.00;101699.31;4960648;28;20135;-85
2022/10/05 01:24:50;;;;;;;2.58;0.70;;;;;;;14.34;100.00;101697.38;4949034;28;20154;-84
2022/10/05 01:27:20;;;;;;;;;;;;;;;14.25;100.00;101701.66;4967363;28;20053;-85
2022/10/05 01:29:53;;;;;;;3.10;0.70;;;;;;;14.26;100.00;101696.28;4962329;28;19922;-87
2022/10/05 01:32:38;;;;;;;3.85;1.00;;;;;;;14.24;100.00;101698.19;4947784;28;20045;-85
2022/10/05 01:35:28;;;;;;;4.32;0.82;;;;;;;14.20;100.00;101699.44;4962573;28;20038;-86
2022/10/05 01:38:01;;;;;;;5.35;0.95;;;;;;;14.16;100.00;101698.09;4965536;28;20054;-86
2022/10/05 01:40:37;;;;;;;2.72;1.30;;;;;;;14.14;100.00;101699.19;4966127;28;20129;-86
2022/10/05 01:43:28;;;;;;;3.28;1.08;;;;;;;14.09;100.00;101701.41;4962932;28;20097;-85
2022/10/05 01:45:59;;;;;;;2.65;0.90;;;;;;;14.08;100.00;101700.56;4965112;28;20118;-85
2022/10/05 01:48:41;;;;;;;3.95;1.02;;;;;;;14.07;100.00;101709.41;5030801;28;20088;-85
2022/10/05 01:51:43;;;;;;;4.20;1.45;;;;;;;14.06;100.00;101707.75;5008281;28;20315;-85
2022/10/05 01:54:14;;;;;;;2.65;0.90;;;;;;;14.04;100.00;101709.66;5024991;28;20037;-84
2022/10/05 01:57:26;;;;;;;2.25;1.08;;;;;;;13.97;100.00;101699.88;5013049;28;20436;-85
2022/10/05 02:00:08;;;;;;;3.53;0.80;;;;;;;13.97;100.00;101695.44;4942026;28;20039;-85
2022/10/05 02:02:41;;;;;;;5.85;1.33;;;;;;;13.95;100.00;101695.59;4949734;28;20488;-83
2022/10/05 02:05:17;;;;;;;3.53;1.15;;;;;;;13.90;100.00;101691.72;4917233;29;20047;-85
2022/10/05 02:08:16;;;;;;;5.47;1.27;;;;;;;13.84;100.00;101687.84;4930071;28;20051;-86
2022/10/05 02:11:11;;;;;;;3.40;1.17;;;;;;;13.75;100.00;101679.97;4933489;28;20126;-84
2022/10/05 02:13:57;;;;;;;3.70;1.08;;;;;;;13.73;100.00;101676.66;4933004;28;20062;-84
2022/10/05 02:16:35;;;;;;;4.30;1.42;;;;;;;13.72;100.00;101680.25;4940591;28;20120;-85
2022/10/05 02:19:19;;;;;;;2.63;0.98;;;;;;;13.74;100.00;101679.13;4940506;28;20428;-85
2022/10/05 02:21:50;;;;;;;3.88;1.23;;;;;;;13.76;100.00;101676.38;4928946;29;20126;-85
2022/10/05 02:24:28;;;;;;;4.70;1.35;;;;;;;13.77;100.00;101680.66;4933664;28;20077;-85
2022/10/05 02:26:55;;;;;;;2.88;1.05;;;;;;;13.80;100.00;101683.84;4928913;29;20042;-83
2022/10/05 02:29:23;;;;;;;3.72;0.90;;;;;;;13.78;100.00;101684.94;4936866;28;20039;-84
2022/10/05 02:32:10;;;;;;;4.18;1.08;;;;;;;13.75;100.00;101683.41;4938985;28;20034;-84
2022/10/05 02:34:40;;;;;;;5.35;1.30;;;;;;;13.73;100.00;101685.34;5008179;28;20072;-84
2022/10/05 02:37:53;;;;;;;3.75;1.17;;;;;;;13.70;100.00;101695.28;5025270;28;20032;-85
2022/10/05 02:40:28;;;;;;;7.97;1.75;;;;;;;13.68;100.00;101689.34;4952410;28;20135;-85
2022/10/05 02:43:10;;;;;;;3.58;0.95;;;;;;;13.69;100.00;101691.84;4963441;28;20070;-85
2022/10/05 02:45:38;;;;;;;6.55;1.50;;;;;;;13.66;100.00;101686.88;4951717;28;20515;-85
2022/10/05 02:48:30;;;;;;;4.55;0.88;;;;;;;13.55;100.00;101689.59;4958194;28;20111;-85
2022/10/05 02:51:19;;;;;;;2.90;1.05;;;;;;;13.42;100.00;101684.59;4953613;28;20051;-85
2022/10/05 02:54:01;;;;;;;3.60;1.60;;;;;;;13.44;100.00;101681.84;4955201;28;20023;-84
2022/10/05 02:56:32;;;;;;;7.90;1.70;;;;;;;13.38;100.00;101688.44;4932954;29;20137;-85
2022/10/05 02:59:09;;;;;;;8.20;1.70;;;;;;;13.29;100.00;101700.53;4958490;28;20038;-85
2022/10/05 03:01:39;;;;;;;4.93;1.08;;;;;;;13.29;100.00;101697.09;4954159;28;20137;-85
2022/10/05 03:04:10;;;;;;;1.92;0.88;;;;;;;13.31;100.00;101703.00;4947020;28;20051;-84
2022/10/05 03:07:03;;;;;;;4.50;1.48;;;;;;;13.34;100.00;101696.69;4952268;28;20265;-84
2022/10/05 03:09:38;;;;;;;2.58;0.98;;;;;;;13.36;100.00;101692.97;4949006;28;20047;-83
2022/10/05 03:12:35;;;;;;;3.00;1.20;;;;;;;13.36;100.00;101694.78;4960888;28;20594;-86
2022/10/05 03:15:30;;;;;;;4.95;1.35;;;;;;;13.31;100.00;101689.94;4955614;28;20635;-85
2022/10/05 03:18:10;;;;;;;6.88;1.45;;;;;;;13.25;100.00;101691.28;5025883;28;20034;-85
2022/10/05 03:20:48;;;;;;;2.65;0.95;;;;;;;13.23;100.00;101698.44;5012706;28;20029;-85
2022/10/05 03:23:29;;;;;;;3.20;1.23;;;;;;;13.21;100.00;101696.94;5016786;28;20037;-85
2022/10/05 03:26:17;;;;;;;8.75;2.25;;;;;;;13.23;100.00;101695.03;5024205;28;20072;-84
2022/10/05 03:29:19;;;;;;;4.22;1.27;;;;;;;13.23;100.00;101695.03;5011781;28;20069;-84
2022/10/05 03:31:59;;;;;;;5.15;1.05;;;;;;;13.24;100.00;101701.88;5029452;28;20037;-84
2022/10/05 03:34:51;;;;;;;7.00;1.20;;;;;;;13.23;100.00;101695.03;5022675;28;20167;-83
2022/10/05 03:37:40;;;;;;;3.95;1.23;;;;;;;13.24;100.00;101694.84;5012090;28;20041;-83
2022/10/05 03:40:19;;;;;;;5.82;1.25;;;;;;;13.27;100.00;101696.38;5018993;28;20108;-83
2022/10/05 03:42:59;;;;;;;4.43;1.02;;;;;;;13.24;100.00;101692.25;5024295;28;20079;-83
2022/10/05 03:45:36;;;;;;;3.50;1.33;;;;;;;13.22;100.00;101698.59;5043156;28;20036;-83
2022/10/05 03:48:11;;;;;;;5.50;1.20;;;;;;;13.21;100.00;101694.31;5027333;28;20034;-84
2022/10/05 03:51:02;;;;;;;3.60;1.13;;;;;;;13.23;100.00;101695.03;5046400;28;20036;-83
2022/10/05 03:53:36;;;;;;;4.55;1.45;;;;;;;13.20;100.00;101701.34;5049042;28;20029;-84
2022/10/05 03:56:13;;;;;;;2.28;0.93;;;;;;;13.17;100.00;101695.53;5057090;28;20052;-83
2022/10/05 03:58:48;;;;;;;1.33;0.80;;;;;;;13.15;100.00;101694.81;5031666;28;20059;-83
2022/10/05 04:01:17;;;;;;;;;;;;;;;13.10;100.00;101694.38;5045870;28;20396;-83
2022/10/05 04:03:46;;;;;;;2.10;1.00;;;;;;;13.17;100.00;101690.31;5040298;28;20407;-84
2022/10/05 04:06:18;;;;;;;4.30;1.08;;;;;;;13.17;100.00;101700.78;5033277;28;20092;-84
2022/10/05 04:09:07;;;;;;;2.42;1.38;;;;;;;13.17;100.00;101685.91;5048949;28;20037;-84
2022/10/05 04:11:53;;;;;;;1.88;1.23;;;;;;;13.11;100.00;101693.41;5016691;28;20488;-84
2022/10/05 04:14:27;;;;;;;4.13;1.20;;;;;;;13.09;100.00;101690.94;5047585;28;20054;-83
2022/10/05 04:17:03;;;;;;;2.17;1.10;;;;;;;13.11;100.00;101696.03;5048057;28;20033;-83
2022/10/05 04:19:31;;;;;;;3.85;1.30;;;;;;;13.08;100.00;101688.44;5047577;28;20432;-83
2022/10/05 04:22:38;;;;;;;2.92;1.33;;;;;;;13.07;100.00;101687.63;5042493;28;20361;-83
2022/10/05 04:25:14;;;;;;;;;;;;;;;13.02;100.00;101692.41;4948769;29;20159;-83
2022/10/05 04:27:59;;;;;;;1.58;0.80;;;;;;;13.04;100.00;101690.50;4947143;28;19966;-84
2022/10/05 04:30:24;;;;;;;2.05;1.10;;;;;;;13.08;100.00;101696.28;4947175;28;20118;-84
2022/10/05 04:32:56;;;;;;;5.30;1.20;;;;;;;13.08;100.00;101691.06;4951272;28;20059;-84
2022/10/05 04:35:55;;;;;;;1.83;1.13;;;;;;;13.07;100.00;101684.16;4946682;28;20051;-85
2022/10/05 04:38:42;;;;;;;3.92;1.27;;;;;;;13.11;100.00;101688.19;4964218;28;20035;-84
2022/10/05 04:41:23;;;;;;;2.83;0.98;;;;;;;13.11;100.00;101688.19;4947725;29;20395;-84
2022/10/05 04:44:06;;;;;;;6.70;1.30;;;;;;;13.13;100.00;101688.88;4947668;29;20055;-83
2022/10/05 04:46:35;;;;;;;3.10;1.08;;;;;;;13.17;100.00;101690.31;4947765;28;20109;-85
2022/10/05 04:49:15;;;;;;;2.45;0.98;;;;;;;13.12;100.00;101697.69;4947019;29;20058;-84
2022/10/05 04:52:13;;;;;;;3.00;0.80;;;;;;;13.09;100.00;101697.94;4947745;29;20051;-83
2022/10/05 04:55:03;;;;;;;2.35;1.40;;;;;;;13.10;100.00;101708.28;4946914;28;20042;-85
2022/10/05 04:57:35;;;;;;;3.53;1.08;;;;;;;13.11;100.00;101699.47;4930522;29;20491;-83
2022/10/05 05:00:28;;;;;;;3.15;1.13;;;;;;;13.14;100.00;101703.63;5025195;28;20516;-84
2022/10/05 05:03:09;;;;;;;5.25;1.10;;;;;;;13.10;100.00;101710.06;5028685;28;20049;-84
2022/10/05 05:06:02;;;;;;;8.52;1.40;;;;;;;13.12;100.00;101713.38;5029819;28;20479;-83
2022/10/05 05:09:02;;;;;;;2.42;1.55;;;;;;;13.10;100.00;101715.31;5041343;28;20044;-84
2022/10/05 05:11:59;;;;;;;8.07;1.70;;;;;;;13.09;100.00;101722.31;5030598;28;20037;-85
2022/10/05 05:14:53;;;;;;;3.00;1.25;;;;;;;13.10;100.00;101723.97;5015869;28;20072;-85
2022/10/05 05:17:31;;;;;;;3.28;1.30;;;;;;;13.09;100.00;101721.50;5007445;28;20161;-84
2022/10/05 05:20:30;;;;;;;3.38;1.10;;;;;;;13.14;100.00;101719.31;5030215;28;20029;-85
2022/10/05 05:23:10;;;;;;;4.57;1.40;;;;;;;13.15;100.00;101721.81;5028329;28;20374;-84
2022/10/05 05:25:47;;;;;;;3.03;1.15;;;;;;;13.16;100.00;101722.66;5045382;28;20040;-84
2022/10/05 05:28:37;;;;;;;2.55;0.80;;;;;;;13.13;100.00;101718.50;5034792;28;20075;-85
2022/10/05 05:31:35;;;;;;;2.53;1.13;;;;;;;13.13;100.00;101725.50;5036741;28;20040;-83
2022/10/05 05:34:26;;;;;;;1.67;1.20;;;;;;;13.13;100.00;101720.28;5046920;28;20041;-85
2022/10/05 05:37:36;;;;;;;3.35;1.20;;;;;;;13.13;100.00;101730.75;5010850;28;20164;-85
2022/10/05 05:40:13;;;;;;;2.25;0.70;;;;;;;13.13;100.00;101738.59;4999649;28;20085;-85
2022/10/05 05:42:46;;;;;;;1.98;1.13;;;;;;;13.15;100.00;101737.50;4982492;28;20050;-84
2022/10/05 05:45:41;;;;;;;2.42;1.02;;;;;;;13.19;100.00;101727.66;4994678;28;20120;-83
2022/10/05 05:48:46;;;;;;;1.77;1.37;;;;;;;13.20;100.00;101737.97;4997526;28;20049;-84
2022/10/05 05:51:24;;;;;;;4.63;1.35;;;;;;;13.22;100.00;101735.25;4993287;28;20042;-83
2022/10/05 05:54:12;;;;;;;10.32;0.95;;;;;;;13.25;100.00;101738.38;4993272;28;20376;-83
2022/10/05 05:56:42;;;;;;;5.88;0.88;;;;;;;13.32;100.00;101741.31;4988963;28;20050;-85
2022/10/05 05:59:21;;;;;;;3.42;1.05;;;;;;;13.40;100.00;101743.28;4994814;28;20045;-83
2022/10/05 06:02:03;;;;;;;4.22;1.10;;;;;;;13.43;100.00;101743.84;4991293;28;20035;-84
2022/10/05 06:04:35;;;;;;;3.72;0.85;;;;;;;13.50;100.00;101754.63;4979789;28;20029;-83
2022/10/05 06:07:04;;;;;;;4.63;1.27;;;;;;;13.58;100.00;101758.25;4989633;28;20038;-84
2022/10/05 06:10:08;;;;;;;2.35;0.80;;;;;;;13.60;100.00;101761.56;4987053;28;20444;-84
2022/10/05 06:12:46;;;;;;;5.72;1.52;;;;;;;13.60;100.00;101764.19;4994293;28;20037;-83
2022/10/05 06:15:29;;;;;;;3.55;0.93;;;;;;;13.62;100.00;101764.03;5002229;28;20461;-84
2022/10/05 06:18:00;;;;;;;2.20;1.15;;;;;;;13.68;100.00;101763.50;5021235;28;20045;-83
2022/10/05 06:20:34;;;;;;;2.58;1.00;;;;;;;13.71;100.00;101757.97;5011157;28;20488;-83
2022/10/05 06:23:05;;;;;;;3.60;1.00;;;;;;;13.75;100.00;101759.38;4999617;28;20402;-83
2022/10/05 06:25:47;;;;;;;4.32;1.00;;;;;;;13.79;100.00;101759.94;5022056;28;20065;-84
2022/10/05 06:28:15;;;;;;;3.00;0.70;;;;;;;13.82;100.00;101764.91;5014670;28;20041;-79
2022/10/05 06:31:04;;;;;;;3.15;0.90;;;;;;;13.81;100.00;101769.31;5017588;28;20042;-80
2022/10/05 06:33:32;;;;;;;1.50;0.85;;;;;;;13.87;100.00;101775.81;5008017;28;20224;-81
2022/10/05 06:36:26;;;;;;;3.30;0.88;;;;;;;13.84;100.00;101784.78;5008043;28;20026;-79
2022/10/05 06:39:22;;;;;;;8.70;0.90;;;;;;;13.84;100.00;101778.72;5008443;28;20058;-79
2022/10/05 06:41:58;;;;;;;6.47;1.13;;;;;;;13.88;100.00;101767.00;5021173;28;20032;-80
2022/10/05 06:44:42;;;;;;;4.75;1.00;;;;;;;13.95;100.00;101776.81;5039697;28;20147;-80
2022/10/05 06:47:45;;;;;;;3.30;0.70;;;;;;;13.98;100.00;101775.72;5036335;28;20045;-79
2022/10/05 06:50:37;;;;;;;2.15;1.10;;;;;;;13.98;100.00;101786.19;5034542;28;20370;-83
2022/10/05 06:53:21;;;;;;;5.75;0.98;;;;;;;14.03;100.00;101777.94;5046542;28;20037;-84
2022/10/05 06:56:00;;;;;;;3.80;1.02;;;;;;;14.10;100.00;101774.63;5045026;28;20032;-84
2022/10/05 06:58:44;;;;;;;1.38;0.70;;;;;;;14.14;100.00;101778.66;5046973;28;20116;-84
2022/10/05 07:01:14;;;;;;;3.38;0.70;;;;;;;14.20;100.00;101775.47;5046919;28;20047;-84
2022/10/05 07:04:06;;;;;;;5.00;1.63;;;;;;;14.22;100.00;101778.78;5034990;28;20439;-85
2022/10/05 07:06:49;;;;;;;7.97;1.30;;;;;;;14.24;100.00;101776.84;5021699;28;20045;-84
2022/10/05 07:09:35;;;;;;;7.05;1.00;;;;;;;14.29;100.00;101769.41;5034711;28;20037;-84
2022/10/05 07:12:24;;;;;;;3.30;1.10;;;;;;;14.36;100.00;101776.72;5029644;28;20044;-83
2022/10/05 07:15:04;;;;;;;4.60;1.23;;;;;;;14.44;100.00;101782.16;5029518;28;20041;-85
2022/10/05 07:17:46;;;;;;;2.03;0.80;;;;;;;14.48;100.00;101784.34;5029650;28;20061;-85
2022/10/05 07:20:18;;;;;;;3.20;0.88;;;;;;;14.57;100.00;101780.06;5036905;28;20073;-84
2022/10/05 07:23:16;;;;;;;1.45;0.60;;;;;;;14.55;100.00;101785.47;5030076;28;20129;-84
2022/10/05 07:26:13;;;;;;;4.43;0.82;;;;;;;14.57;100.00;101787.94;5029530;28;20033;-84
2022/10/05 07:28:45;;;;;;;5.28;1.10;;;;;;;14.60;100.00;101785.88;5021607;28;20045;-85
2022/10/05 07:31:23;;;;;;;1.92;1.08;;;;;;;14.70;100.00;101787.63;5029772;28;20137;-85
2022/10/05 07:34:06;;;;;;;4.35;1.13;;;;;;;14.81;100.00;101795.38;5011334;28;20099;-85
2022/10/05 07:39:49;;;;;;;3.78;1.30;;;;;;;15.00;100.00;101791.91;5043559;28;20052;-84
2022/10/05 07:42:33;;;;;;;8.00;1.02;;;;;;;15.05;100.00;101797.56;5040268;28;20460;-85
2022/10/05 07:45:23;;;;;;;4.93;1.17;;;;;;;15.11;100.00;101797.00;5022965;28;20127;-85
2022/10/05 07:48:00;;;;;;;3.35;1.02;;;;;;;15.19;100.00;101812.84;5023760;28;20036;-85
2022/10/05 07:50:36;;;;;;;2.00;1.10;;;;;;;15.23;100.00;101806.34;5040353;28;20036;-85
2022/10/05 07:53:10;;;;;;;2.03;0.63;;;;;;;15.30;100.00;101801.34;5042888;28;20036;-85
2022/10/05 07:55:59;;;;;;;3.35;0.93;;;;;;;15.37;100.00;101800.63;5035443;28;20055;-85
2022/10/05 07:58:33;;;;;;;5.57;1.88;;;;;;;15.47;100.00;101808.50;5040768;28;20061;-85
2022/10/05 08:01:07;;;;;;;4.50;1.50;;;;;;;15.56;100.00;101805.88;5036983;28;20495;-84
2022/10/05 08:04:02;;;;;;;5.30;1.70;;;;;;;15.60;100.00;101799.31;5023491;28;20029;-84
2022/10/05 08:06:34;;;;;;;4.68;2.50;;;;;;;15.64;100.00;101802.47;5011161;28;20045;-85
2022/10/05 08:09:30;;;;;;;5.65;1.70;;;;;;;15.74;100.00;101805.06;5018300;28;20528;-85
2022/10/05 08:12:23;;;;;;;5.20;1.70;;;;;;;15.76;100.00;101803.97;5001924;28;20048;-84
2022/10/05 08:14:56;;;;;;;6.85;1.77;;;;;;;15.82;100.00;101810.44;5038580;28;20087;-85
2022/10/05 08:17:22;;;;;;;5.38;1.23;;;;;;;15.90;100.00;101815.78;5045252;28;20063;-84
2022/10/05 08:20:01;;;;;;;4.18;1.60;;;;;;;15.97;100.00;101830.00;5039835;28;20469;-84
2022/10/05 08:22:40;;;;;;;3.08;0.75;;;;;;;16.03;100.00;101824.16;5048368;28;20037;-84
2022/10/05 08:25:18;;;;;;;2.97;0.80;;;;;;;16.06;100.00;101831.75;5048460;28;20047;-85
2022/10/05 08:28:07;;;;;;;3.63;0.73;;;;;;;16.09;100.00;101827.97;5028684;28;20033;-84
2022/10/05 08:30:53;;;;;;;3.58;1.10;;;;;;;16.13;100.00;101830.16;5045816;28;20099;-85
2022/10/05 08:33:23;;;;;;;4.22;1.08;;;;;;;16.22;100.00;101825.81;5033599;28;20112;-85
2022/10/05 08:36:07;;;;;;;3.72;0.80;;;;;;;16.26;100.00;101822.75;5012250;28;20026;-84
2022/10/05 08:38:33;;;;;;;3.67;1.08;;;;;;;16.35;100.00;101825.47;5040742;28;20061;-84
2022/10/05 08:41:11;;;;;;;4.80;0.63;;;;;;;16.38;100.00;101825.19;5037869;28;20063;-85
2022/10/05 08:43:58;;;;;;;4.15;0.90;;;;;;;16.39;100.00;101832.91;5017198;28;20061;-84
2022/10/05 08:46:35;;;;;;;2.83;0.80;;;;;;;16.47;100.00;101819.84;5036243;28;20392;-84
2022/10/05 08:49:45;;;;;;;2.17;0.50;;;;;;;16.55;100.00;101824.34;5020051;28;20147;-85
2022/10/05 08:52:27;;;;;;;4.82;0.52;;;;;;;16.67;100.00;101820.53;4927135;29;20051;-84
2022/10/05 08:55:11;;;;;;;1.85;0.50;;;;;;;16.82;100.00;101828.72;4933509;28;20487;-84
2022/10/05 08:58:17;;;;;;;3.72;0.70;;;;;;;16.90;100.00;101815.63;4937571;28;20146;-84
2022/10/05 09:01:01;;;;;;;5.95;0.55;;;;;;;16.94;100.00;101822.25;4929958;29;20067;-84
2022/10/05 09:03:47;;;;;;;1.83;0.47;;;;;;;16.99;100.00;101821.78;4934199;28;20085;-85
2022/10/05 09:06:25;;;;;;;4.13;0.93;;;;;;;17.00;100.00;101820.81;4937238;28;20035;-84
2022/10/05 09:09:20;;;;;;;2.17;0.52;;;;;;;17.05;100.00;101829.88;4939794;28;20065;-85
2022/10/05 09:11:54;;;;;;;2.95;0.45;;;;;;;17.18;100.00;101825.03;4943847;28;20138;-84
2022/10/05 09:14:25;;;;;;;2.70;0.40;;;;;;;17.22;100.00;101826.38;4939789;28;20043;-85
2022/10/05 09:17:09;;;;;;;1.42;0.85;;;;;;;17.20;100.00;101827.50;4935732;28;20047;-84
2022/10/05 09:19:51;;;;;;;3.10;0.70;;;;;;;17.25;100.00;101820.81;4923364;29;20551;-84
2022/10/05 09:22:51;;;;;;;2.65;0.50;;;;;;;17.29;100.00;101823.97;4948757;29;20588;-84
2022/10/05 09:25:43;;;;;;;5.50;1.13;;;;;;;17.30;100.00;101822.97;4941223;28;20067;-85
2022/10/05 09:28:48;;;;;;;2.05;0.55;;;;;;;17.53;100.00;101829.34;4966196;28;20520;-84
2022/10/05 09:31:22;;;;;;;4.38;0.65;;;;;;;17.64;100.00;101824.78;5035935;28;20428;-84
2022/10/05 09:34:14;;;;;;;3.20;0.55;;;;;;;17.71;100.00;101821.41;5045825;28;20123;-84
2022/10/05 09:37:02;;;;;;;7.18;0.85;;;;;;;17.64;100.00;101828.25;5029050;28;20068;-84
2022/10/05 09:39:39;;;;;;;9.55;0.90;;;;;;;17.64;100.00;101828.25;5039839;28;20160;-84
2022/10/05 09:42:44;;;;;;;2.42;0.80;;;;;;;17.73;99.51;101827.34;5032466;28;20053;-85
2022/10/05 09:45:30;;;;;;;1.35;0.75;;;;;;;17.77;99.85;101822.59;5030797;28;20340;-84
2022/10/05 09:48:05;;;;;;;;;;;;;;;17.77;97.88;101819.94;5034605;28;20067;-85
2022/10/05 09:50:36;;;;;;;3.22;0.70;;;;;;;17.76;100.00;101824.41;5026709;28;19925;-86
2022/10/05 09:53:24;;;;;;;1.80;0.80;;;;;;;17.76;100.00;101829.66;5044934;28;20033;-86
2022/10/05 09:55:59;;;;;;;5.88;1.08;;;;;;;17.94;100.00;101821.66;5040772;28;20028;-87
2022/10/05 09:58:42;;;;;;;3.38;0.70;;;;;;;18.11;100.00;101822.53;5031930;28;20075;-86
2022/10/05 10:02:04;;;;;;;3.17;0.70;;;;;;;18.20;100.00;101817.09;5028040;28;20041;-86
2022/10/05 10:04:33;;;;;;;3.13;0.52;;;;;;;18.18;100.00;101824.34;4963869;28;20065;-84
2022/10/05 10:07:37;;;;;;;4.45;0.68;;;;;;;18.24;100.00;101813.16;4965365;28;20042;-84
2022/10/05 10:10:34;;;;;;;1.38;0.40;;;;;;;18.25;100.00;101819.25;4961457;28;20630;-84
2022/10/05 10:13:05;;;;;;;3.08;0.60;;;;;;;18.28;100.00;101823.41;4901146;29;20107;-84
2022/10/05 10:15:56;;;;;;;1.23;0.55;;;;;;;18.33;100.00;101821.09;4909670;29;20067;-84
2022/10/05 10:18:58;;;;;;;3.17;0.70;;;;;;;18.34;100.00;101822.75;4908440;29;20040;-84
2022/10/05 10:21:58;;;;;;;3.65;0.60;;;;;;;18.35;100.00;101812.03;4912382;29;20153;-84
2022/10/05 10:24:42;;;;;;;2.80;0.70;;;;;;;18.35;100.00;101811.22;4896248;29;20044;-84
2022/10/05 10:27:07;;;;;;;3.15;0.60;;;;;;;18.23;100.00;101819.44;4906687;29;20044;-83
2022/10/05 10:29:41;;;;;;;1.08;0.40;;;;;;;18.26;100.00;101820.09;4900575;29;20055;-84
2022/10/05 10:32:28;;;;;;;2.63;0.55;;;;;;;18.29;100.00;101811.84;4899245;29;20044;-84
2022/10/05 10:35:17;;;;;;;2.78;0.80;;;;;;;18.36;100.00;101820.78;4927459;28;21785;-84
2022/10/05 10:38:22;;;;;;;2.67;0.73;;;;;;;18.37;100.00;101817.97;4942166;28;20511;-84
2022/10/05 10:41:21;;;;;;;3.78;1.08;;;;;;;18.44;99.90;101823.41;4967467;28;20566;-83
2022/10/05 10:44:01;;;;;;;3.90;0.85;;;;;;;18.42;100.00;101826.22;4963166;28;20109;-83
2022/10/05 10:46:56;;;;;;;3.00;0.60;;;;;;;18.38;98.80;101824.06;4960270;28;20054;-83
2022/10/05 10:50:00;;;;;;;2.83;0.70;;;;;;;18.42;99.51;101826.22;4992068;28;20211;-83
2022/10/05 10:53:03;;;;;;;4.97;0.95;;;;;;;18.37;99.76;101827.69;5012846;28;20041;-84
2022/10/05 10:55:52;;;;;;;4.55;0.98;;;;;;;18.33;100.00;101823.72;5020932;28;20038;-84
2022/10/05 10:58:27;;;;;;;1.83;1.08;;;;;;;18.22;99.47;101827.50;5014494;28;20053;-83
2022/10/05 11:01:07;;;;;;;2.83;1.13;;;;;;;18.13;97.32;101826.66;5018878;28;20045;-83
2022/10/05 11:03:44;;;;;;;5.18;1.25;;;;;;;18.09;97.63;101825.31;5026166;28;20021;-83
2022/10/05 11:06:28;;;;;;;1.90;0.95;;;;;;;18.17;95.00;101820.06;5029151;28;20046;-83
2022/10/05 11:09:15;;;;;;;3.55;0.90;;;;;;;18.21;91.63;101823.22;5017069;28;20124;-84
2022/10/05 11:11:50;;;;;;;4.63;1.13;;;;;;;18.39;92.07;101817.81;5022099;28;20123;-86
2022/10/05 11:14:35;;;;;;;3.78;0.70;;;;;;;18.48;92.72;101814.16;5020863;28;20057;-84
2022/10/05 11:17:22;;;;;;;3.22;0.80;;;;;;;18.48;93.29;101816.81;5012046;28;21248;-83
2022/10/05 11:20:02;;;;;;;2.03;1.10;;;;;;;18.48;93.33;101809.72;5016896;28;20091;-84
2022/10/05 11:22:52;;;;;;;4.65;1.40;;;;;;;18.53;89.67;101811.88;5014196;28;20111;-84
2022/10/05 11:25:34;;;;;;;3.58;0.95;;;;;;;18.64;87.92;101808.13;5018487;28;20041;-83
2022/10/05 11:28:21;;;;;;;2.28;1.30;;;;;;;18.66;89.08;101801.69;5018925;28;20053;-83
2022/10/05 11:31:04;;;;;;;6.20;1.00;;;;;;;18.76;87.21;101806.81;5020929;28;20052;-85
2022/10/05 11:33:29;;;;;;;2.50;0.60;;;;;;;18.75;90.34;101800.69;5024740;28;20037;-84
2022/10/05 11:36:07;;;;;;;3.30;0.70;;;;;;;18.82;87.56;101795.59;5017485;28;20036;-84
2022/10/05 11:38:57;;;;;;;4.30;0.80;;;;;;;18.97;84.77;101806.28;5023120;28;20602;-84
2022/10/05 11:41:40;;;;;;;2.17;0.60;;;;;;;18.94;86.41;101791.59;5010192;28;20432;-83
2022/10/05 11:44:37;;;;;;;7.43;1.17;;;;;;;18.95;87.94;101800.34;5028802;28;20243;-83
2022/10/05 11:47:23;;;;;;;3.40;0.80;;;;;;;18.99;89.20;101791.09;5037194;28;20461;-84
2022/10/05 11:50:13;;;;;;;2.78;1.02;;;;;;;19.04;84.56;101794.06;5036544;28;20558;-83
2022/10/05 11:52:46;;;;;;;1.88;0.98;;;;;;;19.06;85.89;101776.22;5039714;28;20489;-83
2022/10/05 11:55:38;;;;;;;2.53;1.10;;;;;;;19.21;85.01;101785.09;5030221;28;20231;-83
2022/10/05 11:58:18;;;;;;;3.22;1.20;;;;;;;19.18;83.75;101786.28;5039757;28;20048;-83
2022/10/05 12:00:53;;;;;;;1.85;1.15;;;;;;;19.20;82.65;101783.47;5034144;28;20072;-83
2022/10/05 12:03:41;;;;;;;1.87;0.90;;;;;;;19.14;85.62;101786.78;5043298;28;20033;-83
2022/10/05 12:06:15;;;;;;;1.17;1.08;;;;;;;19.02;85.88;101785.47;5034956;28;20037;-83
2022/10/05 12:09:18;;;;;;;3.50;1.17;;;;;;;18.95;82.24;101784.50;5038092;28;20037;-84
2022/10/05 12:12:10;;;;;;;2.03;1.00;;;;;;;18.96;85.65;101791.41;5032603;28;20493;-82
2022/10/05 12:15:00;;;;;;;2.13;0.90;;;;;;;18.98;87.38;101794.72;5035853;28;20171;-82
2022/10/05 12:17:40;;;;;;;1.95;0.80;;;;;;;18.97;85.85;101795.72;5030433;28;20034;-83
2022/10/05 12:20:34;;;;;;;0.82;0.68;;;;;;;18.99;85.31;101791.09;5021478;28;20029;-82
2022/10/05 12:23:21;;;;;;;1.30;0.70;;;;;;;18.99;87.85;101791.09;5018829;28;20453;-81
2022/10/05 12:26:10;;;;;;;4.63;0.80;;;;;;;19.06;85.46;101786.78;5042279;28;20055;-82
2022/10/05 12:28:45;;;;;;;3.30;1.08;;;;;;;19.13;89.54;101796.50;5035444;28;20064;-81
2022/10/05 12:31:34;;;;;;;3.28;0.80;;;;;;;19.15;89.02;101780.50;5039974;28;20045;-83
2022/10/05 12:34:18;;;;;;;2.97;0.80;;;;;;;19.14;90.34;101784.13;5036852;28;20033;-83